To NAV CANADA Home Page Login to a new session Search on AWWS site Feedback and Comments Disclaimer Vers la page française équivalente Tips FAQ What's new on the site To the Forecasts and Observations / NOTAM section To "File a Flight Plan" website Publications and other links Update of the User's profile FIC Telephone Numbers My Weather Data Folder Route Weather Data Regional Weather Data Local Weather Data To the Forecasts and Observations / NOTAM section
Request Generated 10/10/2015 at 10:48:42 UTC . Weather information available at that time is displayed.



METAR CYIV 101000Z 14008KT 15SM BKN050 08/07 A2954 RMK SC7 SLP012=
METAR CYIV 100900Z 13008KT 15SM OVC050 08/06 A2956 RMK SC8 SLP018=
METAR CYIV 100800Z 13008KT 15SM OVC050 07/06 A2958 RMK SC8 SLP026=

TAF CYIV 100638Z 1007/1019 14008KT 6SM -RA BR OVC050
BECMG 1007/1009 P6SM NSW SCT050 BKN100
FM101200 16006KT P6SM BKN120
BECMG 1016/1018 29005KT SCT100 BKN240
Your time UTC time
Weather data provided by Environment Canada and NAV CANADA